createdAt,value
2017-09-01T00:00:57.240Z,9.2
2017-09-01T00:01:58.873Z,8.0
2017-09-01T00:03:00.501Z,8.1
2017-09-01T00:04:02.129Z,8.1
2017-09-01T00:05:03.757Z,9.2
2017-09-01T00:06:05.389Z,8.5
2017-09-01T00:07:07.016Z,8.2
2017-09-01T00:08:08.646Z,8.3
2017-09-01T00:09:10.280Z,9.0
2017-09-01T00:10:11.909Z,10.5
2017-09-01T00:11:13.538Z,9.2
2017-09-01T00:12:15.163Z,9.1
2017-09-01T00:13:16.794Z,9.7
2017-09-01T00:14:18.435Z,8.3
2017-09-01T00:15:20.067Z,9.2
2017-09-01T00:16:21.698Z,9.1
2017-09-01T00:17:23.352Z,9.8
2017-09-01T00:18:24.961Z,10.7
2017-09-01T00:19:26.595Z,9.4
2017-09-01T00:20:28.224Z,10.7
2017-09-01T00:21:29.855Z,8.7
2017-09-01T00:22:31.487Z,10.3
2017-09-01T00:23:33.113Z,10.6
2017-09-01T00:24:34.755Z,10.5
2017-09-01T00:25:36.373Z,10.0
2017-09-01T00:26:38.005Z,12.4
2017-09-01T00:27:39.635Z,12.3
2017-09-01T00:28:41.264Z,10.4
2017-09-01T00:29:42.893Z,11.0
2017-09-01T00:30:44.525Z,10.5
2017-09-01T00:31:46.168Z,11.3
2017-09-01T00:32:47.789Z,11.5
2017-09-01T00:33:49.417Z,12.6
2017-09-01T00:34:51.059Z,12.5
2017-09-01T00:35:52.686Z,12.2
2017-09-01T00:36:54.322Z,12.0
2017-09-01T00:37:55.953Z,12.2
2017-09-01T00:38:57.588Z,12.5
2017-09-01T00:39:59.215Z,12.7
2017-09-01T00:41:00.844Z,13.6
2017-09-01T00:42:02.505Z,10.1
2017-09-01T00:43:04.129Z,11.4
2017-09-01T00:44:05.764Z,12.2
2017-09-01T00:45:07.396Z,11.0
2017-09-01T00:46:09.030Z,10.8
2017-09-01T00:47:10.660Z,12.8
2017-09-01T00:48:12.290Z,11.1
2017-09-01T00:49:13.923Z,12.9
2017-09-01T00:50:15.556Z,11.7
2017-09-01T00:51:17.186Z,10.8
2017-09-01T00:52:18.814Z,11.6
2017-09-01T00:53:20.448Z,10.9
2017-09-01T00:54:22.084Z,10.7
2017-09-01T00:55:23.705Z,11.1
2017-09-01T00:56:25.333Z,12.2
2017-09-01T00:57:26.962Z,12.8
2017-09-01T00:58:28.593Z,11.1
2017-09-01T00:59:30.224Z,10.5
2017-09-01T01:00:31.853Z,12.3
2017-09-01T01:01:33.499Z,13.6
2017-09-01T01:02:35.121Z,14.1
2017-09-01T01:03:36.753Z,12.5
2017-09-01T01:04:38.391Z,11.6
2017-09-01T01:05:40.024Z,11.7
2017-09-01T01:06:41.650Z,14.8
2017-09-01T01:07:43.285Z,13.3
2017-09-01T01:08:44.912Z,10.3
2017-09-01T01:09:46.540Z,10.5
2017-09-01T01:10:48.166Z,10.7
2017-09-01T01:11:49.800Z,14.0
2017-09-01T01:12:51.430Z,11.9
2017-09-01T01:13:53.060Z,11.3
2017-09-01T01:14:54.692Z,12.9
2017-09-01T01:15:56.321Z,13.3
2017-09-01T01:16:57.949Z,13.0
2017-09-01T01:17:59.583Z,11.9
2017-09-01T01:19:01.214Z,12.3
2017-09-01T01:20:02.850Z,11.2
2017-09-01T01:21:04.479Z,11.3
2017-09-01T01:22:06.115Z,11.6
2017-09-01T01:23:07.751Z,11.6
2017-09-01T01:24:09.381Z,11.3
2017-09-01T01:25:11.018Z,12.4
2017-09-01T01:26:12.649Z,12.2
2017-09-01T01:27:14.303Z,11.4
2017-09-01T01:28:15.941Z,12.8
2017-09-01T01:29:17.572Z,13.1
2017-09-01T01:30:19.211Z,14.6
2017-09-01T01:31:20.836Z,12.0
2017-09-01T01:32:22.468Z,13.6
2017-09-01T01:33:24.104Z,13.5
2017-09-01T01:34:25.735Z,15.2
2017-09-01T01:35:27.366Z,15.1
2017-09-01T01:36:29.010Z,16.3
2017-09-01T01:37:30.642Z,17.2
2017-09-01T01:38:32.274Z,15.8
2017-09-01T01:39:33.907Z,19.5
2017-09-01T01:40:35.531Z,18.6
2017-09-01T01:41:37.166Z,15.5
2017-09-01T01:42:38.799Z,15.0
2017-09-01T01:43:40.435Z,16.3
2017-09-01T01:44:42.064Z,13.0
2017-09-01T01:45:43.696Z,13.5
2017-09-01T01:46:45.331Z,16.1
2017-09-01T01:47:46.961Z,15.4
2017-09-01T01:48:48.604Z,16.9
2017-09-01T01:49:50.230Z,16.6
2017-09-01T01:50:51.864Z,19.4
2017-09-01T01:51:53.494Z,17.0
2017-09-01T01:52:55.130Z,18.2
2017-09-01T01:53:56.763Z,21.0
2017-09-01T01:54:58.418Z,19.2
2017-09-01T01:56:00.031Z,21.1
2017-09-01T01:57:01.661Z,19.6
2017-09-01T01:58:03.294Z,23.0
2017-09-01T01:59:04.923Z,20.6
2017-09-01T02:00:06.552Z,21.1
2017-09-01T02:01:08.188Z,17.5
2017-09-01T02:02:09.816Z,16.9
2017-09-01T02:03:11.450Z,20.6
2017-09-01T02:04:13.079Z,20.5
2017-09-01T02:05:14.710Z,20.9
2017-09-01T02:06:16.343Z,21.0
2017-09-01T02:07:17.973Z,22.1
2017-09-01T02:08:19.606Z,24.2
2017-09-01T02:09:21.238Z,21.0
2017-09-01T02:10:22.871Z,21.8
2017-09-01T02:11:24.500Z,22.8
2017-09-01T02:12:26.133Z,21.1
2017-09-01T02:13:27.780Z,21.9
2017-09-01T02:14:29.397Z,22.6
2017-09-01T02:15:31.036Z,22.7
2017-09-01T02:16:32.661Z,25.5
2017-09-01T02:17:34.294Z,21.0
2017-09-01T02:18:35.928Z,20.7
2017-09-01T02:19:37.561Z,21.6
2017-09-01T02:20:39.189Z,25.3
2017-09-01T02:21:40.818Z,23.4
2017-09-01T02:22:42.447Z,24.8
2017-09-01T02:23:44.084Z,20.7
2017-09-01T02:24:45.716Z,21.4
2017-09-01T02:25:47.347Z,21.6
2017-09-01T02:26:48.983Z,21.8
2017-09-01T02:27:50.613Z,23.0
2017-09-01T02:28:52.246Z,20.9
2017-09-01T02:29:53.876Z,22.0
2017-09-01T02:30:55.510Z,20.4
2017-09-01T02:31:57.143Z,21.0
2017-09-01T02:32:58.773Z,20.3
2017-09-01T02:34:00.405Z,24.3
2017-09-01T02:35:02.034Z,20.0
2017-09-01T02:36:03.668Z,23.4
2017-09-01T02:37:05.300Z,22.0
2017-09-01T02:38:06.930Z,24.8
2017-09-01T02:39:08.566Z,22.1
2017-09-01T02:40:10.196Z,22.9
2017-09-01T02:41:11.829Z,23.3
2017-09-01T02:42:13.463Z,22.3
2017-09-01T02:43:15.097Z,22.2
2017-09-01T02:44:16.736Z,22.6
2017-09-01T02:45:18.390Z,21.7
2017-09-01T02:46:19.996Z,22.7
2017-09-01T02:47:21.628Z,21.5
2017-09-01T02:48:23.263Z,22.4
2017-09-01T02:49:24.893Z,20.4
2017-09-01T02:50:26.524Z,23.7
2017-09-01T02:51:28.154Z,22.2
2017-09-01T02:52:29.785Z,22.9
2017-09-01T02:53:31.419Z,21.9
2017-09-01T02:54:33.055Z,24.0
2017-09-01T02:55:34.689Z,21.7
2017-09-01T02:56:36.317Z,24.5
2017-09-01T02:57:37.954Z,24.9
2017-09-01T02:58:39.586Z,23.3
2017-09-01T02:59:41.221Z,22.9
2017-09-01T03:00:42.851Z,26.0
2017-09-01T03:01:44.487Z,23.5
2017-09-01T03:02:46.118Z,21.3
2017-09-01T03:03:47.749Z,22.3
2017-09-01T03:04:49.380Z,23.4
2017-09-01T03:05:51.006Z,21.7
2017-09-01T03:06:52.637Z,20.7
2017-09-01T03:07:54.267Z,22.8
2017-09-01T03:08:55.897Z,21.2
2017-09-01T03:09:57.526Z,21.8
2017-09-01T03:10:59.165Z,23.7
2017-09-01T03:12:00.790Z,21.3
2017-09-01T03:13:02.426Z,23.6
2017-09-01T03:14:04.053Z,23.1
2017-09-01T03:15:05.686Z,22.3
2017-09-01T03:16:07.316Z,22.5
2017-09-01T03:17:08.954Z,23.0
2017-09-01T03:18:10.585Z,22.6
2017-09-01T03:19:12.216Z,21.7
2017-09-01T03:20:13.844Z,21.2
2017-09-01T03:21:15.473Z,24.0
2017-09-01T03:22:17.109Z,22.4
2017-09-01T03:23:18.738Z,23.5
2017-09-01T03:24:20.378Z,21.7
2017-09-01T03:25:22.004Z,22.0
2017-09-01T03:26:23.639Z,23.0
2017-09-01T03:27:25.270Z,21.6
2017-09-01T03:28:26.897Z,22.4
2017-09-01T03:29:28.527Z,23.3
2017-09-01T03:30:30.167Z,23.0
2017-09-01T03:31:31.793Z,21.5
2017-09-01T03:32:33.422Z,21.0
2017-09-01T03:33:35.056Z,23.4
2017-09-01T03:34:36.688Z,21.3
2017-09-01T03:35:38.325Z,22.4
2017-09-01T03:36:39.963Z,24.6
2017-09-01T03:37:41.588Z,23.7
2017-09-01T03:38:43.222Z,21.5
2017-09-01T03:39:44.859Z,22.4
2017-09-01T03:40:46.487Z,21.5
2017-09-01T03:41:48.118Z,21.9
2017-09-01T03:42:49.751Z,21.4
2017-09-01T03:43:51.384Z,22.2
2017-09-01T03:44:53.015Z,21.6
2017-09-01T03:45:54.652Z,25.6
2017-09-01T03:46:56.282Z,21.7
2017-09-01T03:47:57.919Z,24.8
2017-09-01T03:48:59.546Z,22.6
2017-09-01T03:50:01.180Z,22.2
2017-09-01T03:51:02.811Z,20.9
2017-09-01T03:52:04.441Z,21.9
2017-09-01T03:53:06.074Z,22.6
2017-09-01T03:54:07.707Z,23.7
2017-09-01T03:55:09.337Z,21.1
2017-09-01T03:56:10.968Z,25.2
2017-09-01T03:57:12.600Z,23.2
2017-09-01T03:58:14.229Z,20.1
2017-09-01T03:59:15.867Z,20.8
2017-09-01T04:00:17.498Z,22.4
2017-09-01T04:01:19.131Z,20.5
2017-09-01T04:02:20.759Z,22.9
2017-09-01T04:03:22.388Z,21.4
2017-09-01T04:04:24.016Z,20.7
2017-09-01T04:05:25.650Z,19.9
2017-09-01T04:06:27.276Z,20.5
2017-09-01T04:07:28.915Z,19.1
2017-09-01T04:08:30.542Z,19.8
2017-09-01T04:09:32.170Z,20.7
2017-09-01T04:10:33.805Z,20.8
2017-09-01T04:11:35.439Z,19.6
2017-09-01T04:12:37.074Z,20.0
2017-09-01T04:13:38.713Z,20.6
2017-09-01T04:14:40.346Z,21.5
2017-09-01T04:15:41.975Z,23.6
2017-09-01T04:16:43.604Z,21.9
2017-09-01T04:17:45.245Z,23.4
2017-09-01T04:18:46.877Z,20.4
2017-09-01T04:19:48.508Z,24.4
2017-09-01T04:20:50.151Z,21.2
2017-09-01T04:21:51.785Z,19.6
2017-09-01T04:22:53.414Z,22.5
2017-09-01T04:23:55.046Z,23.1
2017-09-01T04:24:56.679Z,18.9
2017-09-01T04:25:58.348Z,20.6
2017-09-01T04:26:59.981Z,18.7
2017-09-01T04:28:01.614Z,19.6
2017-09-01T04:29:03.249Z,21.4
2017-09-01T04:30:04.882Z,20.6
2017-09-01T04:31:06.552Z,17.3
2017-09-01T04:32:08.186Z,23.3
2017-09-01T04:33:09.816Z,19.7
2017-09-01T04:34:11.448Z,22.0
2017-09-01T04:35:13.083Z,18.9
2017-09-01T04:36:14.719Z,19.4
2017-09-01T04:37:16.352Z,20.1
2017-09-01T04:38:17.980Z,18.8
2017-09-01T04:39:19.610Z,18.7
2017-09-01T04:40:21.241Z,17.9
2017-09-01T04:41:22.875Z,16.7
2017-09-01T04:42:24.510Z,18.9
2017-09-01T04:43:26.157Z,17.8
2017-09-01T04:44:27.785Z,18.7
2017-09-01T04:45:29.421Z,18.2
2017-09-01T04:46:31.059Z,17.6
2017-09-01T04:47:32.693Z,18.5
2017-09-01T04:48:34.323Z,18.4
2017-09-01T04:49:35.970Z,18.9
2017-09-01T04:50:37.606Z,19.8
2017-09-01T04:51:39.247Z,18.4
2017-09-01T04:52:40.881Z,22.0
2017-09-01T04:53:42.514Z,20.2
2017-09-01T04:54:44.151Z,19.6
2017-09-01T04:55:45.780Z,18.9
2017-09-01T04:56:47.416Z,18.6
2017-09-01T04:57:49.051Z,21.2
2017-09-01T04:58:50.680Z,18.9
2017-09-01T04:59:52.314Z,18.2
2017-09-01T05:00:53.949Z,18.3
2017-09-01T05:01:55.581Z,19.4
2017-09-01T05:02:57.217Z,18.4
2017-09-01T05:03:58.856Z,20.9
2017-09-01T05:05:00.489Z,18.8
2017-09-01T05:06:02.182Z,21.8
2017-09-01T05:07:03.812Z,22.2
2017-09-01T05:08:05.450Z,21.4
2017-09-01T05:09:07.085Z,18.5
2017-09-01T05:10:08.770Z,20.0
2017-09-01T05:11:10.412Z,19.9
2017-09-01T05:12:12.056Z,19.3
2017-09-01T05:13:13.689Z,19.3
2017-09-01T05:14:15.324Z,18.7
2017-09-01T05:15:16.962Z,18.1
2017-09-01T05:16:18.593Z,19.1
2017-09-01T05:17:20.231Z,22.3
2017-09-01T05:18:21.869Z,18.8
2017-09-01T05:19:23.515Z,18.9
2017-09-01T05:20:25.148Z,18.1
2017-09-01T05:21:26.797Z,19.1
2017-09-01T05:22:28.434Z,19.5
2017-09-01T05:23:30.069Z,19.5
2017-09-01T05:24:31.703Z,18.4
2017-09-01T05:25:33.342Z,19.1
2017-09-01T05:26:34.979Z,18.4
2017-09-01T05:27:36.612Z,21.9
2017-09-01T05:28:38.248Z,18.6
2017-09-01T05:29:39.882Z,21.4
2017-09-01T05:30:41.525Z,22.1
2017-09-01T05:31:43.157Z,20.0
2017-09-01T05:32:44.823Z,19.1
2017-09-01T05:33:46.466Z,19.5
2017-09-01T05:34:48.097Z,22.5
2017-09-01T05:35:49.731Z,22.7
2017-09-01T05:36:51.369Z,21.0
2017-09-01T05:37:53.000Z,20.3
2017-09-01T05:38:54.636Z,21.2
2017-09-01T05:39:56.277Z,21.8
2017-09-01T05:40:57.913Z,22.9
2017-09-01T05:41:59.548Z,20.1
2017-09-01T05:43:01.183Z,20.0
2017-09-01T05:44:02.819Z,22.7
2017-09-01T05:45:04.450Z,21.9
2017-09-01T05:46:06.086Z,21.6
2017-09-01T05:47:07.723Z,20.3
2017-09-01T05:48:09.363Z,21.5
2017-09-01T05:49:10.999Z,19.7
2017-09-01T05:50:12.648Z,23.8
2017-09-01T05:51:14.281Z,20.8
2017-09-01T05:52:15.921Z,24.4
2017-09-01T05:53:17.551Z,23.9
2017-09-01T05:54:19.190Z,22.7
2017-09-01T05:55:20.867Z,20.1
2017-09-01T05:56:22.545Z,20.9
2017-09-01T05:57:24.171Z,20.5
2017-09-01T05:58:25.808Z,19.6
2017-09-01T05:59:27.564Z,21.8
2017-09-01T06:00:29.198Z,19.8
2017-09-01T06:01:30.835Z,21.5
2017-09-01T06:02:32.481Z,20.2
2017-09-01T06:03:34.112Z,19.7
2017-09-01T06:04:35.744Z,19.6
2017-09-01T06:05:37.385Z,20.3
2017-09-01T06:06:39.018Z,23.0
2017-09-01T06:07:40.660Z,22.0
2017-09-01T06:08:42.298Z,20.9
2017-09-01T06:09:43.937Z,19.2
2017-09-01T06:10:45.569Z,20.0
2017-09-01T06:11:47.208Z,17.7
2017-09-01T06:12:48.844Z,18.1
2017-09-01T06:13:50.479Z,19.2
2017-09-01T06:14:52.120Z,21.8
2017-09-01T06:15:53.762Z,18.8
2017-09-01T06:16:55.399Z,19.2
2017-09-01T06:17:57.034Z,20.1
2017-09-01T06:18:58.670Z,19.4
2017-09-01T06:20:00.304Z,18.7
2017-09-01T06:21:01.941Z,18.8
2017-09-01T06:22:03.572Z,17.5
2017-09-01T06:23:05.214Z,17.6
2017-09-01T06:24:06.849Z,18.0
2017-09-01T06:25:08.486Z,19.2
2017-09-01T06:26:10.122Z,17.5
2017-09-01T06:27:11.760Z,17.2
2017-09-01T06:28:13.394Z,19.8
2017-09-01T06:29:15.037Z,18.5
2017-09-01T06:30:16.671Z,20.2
2017-09-01T06:31:18.306Z,17.3
2017-09-01T06:32:19.964Z,16.7
2017-09-01T06:33:21.599Z,17.5
2017-09-01T06:34:23.241Z,18.2
2017-09-01T06:35:24.879Z,18.0
2017-09-01T06:36:26.517Z,18.0
2017-09-01T06:37:28.154Z,18.0
2017-09-01T06:38:29.818Z,18.2
2017-09-01T06:39:31.426Z,16.9
2017-09-01T06:40:33.060Z,17.4
2017-09-01T06:41:34.693Z,18.6
2017-09-01T06:42:36.330Z,18.3
2017-09-01T06:43:37.972Z,17.6
2017-09-01T06:44:39.605Z,17.4
2017-09-01T06:45:41.240Z,17.0
2017-09-01T06:46:42.880Z,18.1
2017-09-01T06:47:44.517Z,17.8
2017-09-01T06:48:46.204Z,16.7
2017-09-01T06:49:48.797Z,18.2
2017-09-01T06:50:50.436Z,16.8
2017-09-01T06:51:52.073Z,16.7
2017-09-01T06:52:53.721Z,17.8
2017-09-01T06:53:55.378Z,16.7
2017-09-01T06:54:57.010Z,18.3
2017-09-01T06:55:58.649Z,16.6
2017-09-01T06:57:00.284Z,17.1
2017-09-01T06:58:01.923Z,18.3
2017-09-01T06:59:03.566Z,15.9
2017-09-01T07:00:05.207Z,16.5
2017-09-01T07:01:06.849Z,17.0
2017-09-01T07:02:08.484Z,17.4
2017-09-01T07:03:10.130Z,17.3
2017-09-01T07:04:11.763Z,17.8
2017-09-01T07:05:13.401Z,16.0
2017-09-01T07:06:15.047Z,18.5
2017-09-01T07:07:16.709Z,17.2
2017-09-01T07:08:18.346Z,18.7
2017-09-01T07:09:19.979Z,17.3
2017-09-01T07:10:21.619Z,16.0
2017-09-01T07:11:23.273Z,16.6
2017-09-01T07:12:25.080Z,16.0
2017-09-01T07:13:26.728Z,16.2
2017-09-01T07:14:28.365Z,15.7
2017-09-01T07:15:30.032Z,16.7
2017-09-01T07:16:31.680Z,17.8
2017-09-01T07:17:33.321Z,15.7
2017-09-01T07:18:34.980Z,15.4
2017-09-01T07:19:36.621Z,18.5
2017-09-01T07:20:38.259Z,17.5
2017-09-01T07:21:39.900Z,16.7
2017-09-01T07:22:41.542Z,16.5
2017-09-01T07:23:43.187Z,16.0
2017-09-01T07:24:44.825Z,15.5
2017-09-01T07:25:46.459Z,18.4
2017-09-01T07:26:48.097Z,16.4
2017-09-01T07:27:49.744Z,17.1
2017-09-01T07:28:51.385Z,15.4
2017-09-01T07:29:53.024Z,16.0
2017-09-01T07:30:54.664Z,15.8
2017-09-01T07:31:56.306Z,15.5
2017-09-01T07:32:57.941Z,15.0
2017-09-01T07:33:59.593Z,17.0
2017-09-01T07:35:01.225Z,14.5
2017-09-01T07:36:02.869Z,14.4
2017-09-01T07:37:04.510Z,14.7
2017-09-01T07:38:06.147Z,13.6
2017-09-01T07:39:07.783Z,13.7
2017-09-01T07:40:09.418Z,14.1
2017-09-01T07:41:11.067Z,14.5
2017-09-01T07:42:12.706Z,16.9
2017-09-01T07:43:14.354Z,14.8
2017-09-01T07:44:15.989Z,14.9
2017-09-01T07:45:17.625Z,14.9
2017-09-01T07:46:19.263Z,14.8
2017-09-01T07:47:20.902Z,16.7
2017-09-01T07:48:22.557Z,15.0
2017-09-01T07:49:24.193Z,14.1
2017-09-01T07:50:25.840Z,14.0
2017-09-01T07:51:27.493Z,15.2
2017-09-01T07:52:29.135Z,15.0
2017-09-01T07:53:30.775Z,14.9
2017-09-01T07:54:32.416Z,16.5
2017-09-01T07:55:34.063Z,14.2
2017-09-01T07:56:35.700Z,14.1
2017-09-01T07:57:37.351Z,14.6
2017-09-01T07:58:39.004Z,14.8
2017-09-01T07:59:40.647Z,17.3
2017-09-01T08:00:42.289Z,14.1
2017-09-01T08:01:43.977Z,13.2
2017-09-01T08:02:45.625Z,14.3
2017-09-01T08:03:47.270Z,15.4
2017-09-01T08:04:48.920Z,14.3
2017-09-01T08:05:50.572Z,13.7
2017-09-01T08:06:52.214Z,13.9
2017-09-01T08:07:53.849Z,14.0
2017-09-01T08:08:55.507Z,14.0
2017-09-01T08:09:57.152Z,14.5
2017-09-01T08:10:58.798Z,13.6
2017-09-01T08:12:00.438Z,13.6
2017-09-01T08:13:02.092Z,13.1
2017-09-01T08:14:03.737Z,13.0
2017-09-01T08:15:05.378Z,13.3
2017-09-01T08:16:07.031Z,13.9
2017-09-01T08:17:08.679Z,12.2
2017-09-01T08:18:10.323Z,12.5
2017-09-01T08:19:11.971Z,12.6
2017-09-01T08:20:13.628Z,12.2
2017-09-01T08:21:15.275Z,12.2
2017-09-01T08:22:16.917Z,12.0
2017-09-01T08:23:18.581Z,12.3
2017-09-01T08:24:20.234Z,11.0
2017-09-01T08:25:21.879Z,10.9
2017-09-01T08:26:23.529Z,12.7
2017-09-01T08:27:25.195Z,11.7
2017-09-01T08:28:26.839Z,11.6
2017-09-01T08:29:28.483Z,11.5
2017-09-01T08:30:30.137Z,13.5
2017-09-01T08:31:31.788Z,12.1
2017-09-01T08:32:33.433Z,12.2
2017-09-01T08:33:35.126Z,11.6
2017-09-01T08:34:36.790Z,12.3
2017-09-01T08:35:38.416Z,11.1
2017-09-01T08:36:40.065Z,11.7
2017-09-01T08:37:41.758Z,12.7
2017-09-01T08:38:43.404Z,12.1
2017-09-01T08:39:45.051Z,12.5
2017-09-01T08:40:46.733Z,13.1
2017-09-01T08:41:48.377Z,13.3
2017-09-01T08:42:50.026Z,12.9
2017-09-01T08:43:51.700Z,14.0
2017-09-01T08:44:53.352Z,12.5
2017-09-01T08:45:54.999Z,13.2
2017-09-01T08:46:56.652Z,14.2
2017-09-01T08:47:58.325Z,12.6
2017-09-01T08:48:59.978Z,13.0
2017-09-01T08:50:01.634Z,14.3
2017-09-01T08:51:03.290Z,14.8
2017-09-01T08:52:04.948Z,12.7
2017-09-01T08:53:06.596Z,12.6
2017-09-01T08:54:08.266Z,12.0
2017-09-01T08:55:09.923Z,12.3
2017-09-01T08:56:11.568Z,13.1
2017-09-01T08:57:13.272Z,12.7
2017-09-01T08:58:14.920Z,12.9
2017-09-01T08:59:16.567Z,12.1
2017-09-01T09:00:18.281Z,12.0
2017-09-01T09:01:19.928Z,12.4
2017-09-01T09:02:21.585Z,12.3
2017-09-01T09:03:23.237Z,13.3
2017-09-01T09:04:24.886Z,11.8
2017-09-01T09:05:26.539Z,11.5
2017-09-01T09:06:28.195Z,12.8
2017-09-01T09:07:29.852Z,13.3
2017-09-01T09:08:31.506Z,13.2
2017-09-01T09:09:33.160Z,13.0
2017-09-01T09:10:34.814Z,12.7
2017-09-01T09:11:36.464Z,12.9
2017-09-01T09:12:38.118Z,14.0
2017-09-01T09:13:39.772Z,13.4
2017-09-01T09:14:41.425Z,12.8
2017-09-01T09:15:43.084Z,12.4
2017-09-01T09:16:44.740Z,12.1
2017-09-01T09:17:46.390Z,12.5
2017-09-01T09:18:48.047Z,11.1
2017-09-01T09:19:49.698Z,12.6
2017-09-01T09:20:51.352Z,11.8
2017-09-01T09:21:53.008Z,11.6
2017-09-01T09:22:54.666Z,10.9
2017-09-01T09:23:56.333Z,10.8
2017-09-01T09:24:57.988Z,11.1
2017-09-01T09:25:59.640Z,10.7
2017-09-01T09:27:01.293Z,10.1
2017-09-01T09:28:02.945Z,10.5
2017-09-01T09:29:04.599Z,11.0
2017-09-01T09:30:06.253Z,11.8
2017-09-01T09:31:07.908Z,12.9
2017-09-01T09:32:09.559Z,11.5
2017-09-01T09:33:11.221Z,10.7
2017-09-01T09:34:12.865Z,11.3
2017-09-01T09:35:14.519Z,11.7
2017-09-01T09:36:16.175Z,11.8
2017-09-01T09:37:17.838Z,11.7
2017-09-01T09:38:19.485Z,11.6
2017-09-01T09:39:21.149Z,11.4
2017-09-01T09:40:22.799Z,11.8
2017-09-01T09:41:24.454Z,12.7
2017-09-01T09:42:26.110Z,11.5
2017-09-01T09:43:27.761Z,12.5
2017-09-01T09:44:29.416Z,11.7
2017-09-01T09:45:31.076Z,10.3
2017-09-01T09:46:32.852Z,11.0
2017-09-01T09:47:34.511Z,9.4
2017-09-01T09:48:36.163Z,11.0
2017-09-01T09:49:37.807Z,12.2
2017-09-01T09:50:39.456Z,13.8
2017-09-01T09:51:41.111Z,13.9
2017-09-01T09:52:42.759Z,13.7
2017-09-01T09:53:44.407Z,12.4
2017-09-01T09:54:46.054Z,12.8
2017-09-01T09:55:47.701Z,15.0
2017-09-01T09:56:49.350Z,14.9
2017-09-01T09:57:51.004Z,13.2
2017-09-01T09:58:52.652Z,13.6
2017-09-01T09:59:54.300Z,12.8
2017-09-01T10:00:55.947Z,12.6
2017-09-01T10:01:57.597Z,12.9
2017-09-01T10:02:59.248Z,14.1
2017-09-01T10:04:00.894Z,13.3
2017-09-01T10:05:02.540Z,13.0
2017-09-01T10:06:04.186Z,13.0
2017-09-01T10:07:05.836Z,13.1
2017-09-01T10:08:07.480Z,14.1
2017-09-01T10:09:09.124Z,14.9
2017-09-01T10:10:10.773Z,14.8
2017-09-01T10:11:12.418Z,14.1
2017-09-01T10:12:14.068Z,13.2
2017-09-01T10:13:15.716Z,13.4
2017-09-01T10:14:17.390Z,12.7
2017-09-01T10:15:19.015Z,14.5
2017-09-01T10:16:20.675Z,14.6
2017-09-01T10:17:22.398Z,13.6
2017-09-01T10:18:24.044Z,13.9
2017-09-01T10:19:25.693Z,13.8
2017-09-01T10:20:27.345Z,13.7
2017-09-01T10:21:28.993Z,14.0
2017-09-01T10:22:30.643Z,13.8
2017-09-01T10:23:32.353Z,12.8
2017-09-01T10:24:33.999Z,13.4
2017-09-01T10:25:35.647Z,13.9
2017-09-01T10:26:37.293Z,12.4
2017-09-01T10:27:38.941Z,12.0
2017-09-01T10:28:40.592Z,13.0
2017-09-01T10:29:42.234Z,12.3
2017-09-01T10:30:43.881Z,13.5
2017-09-01T10:31:45.534Z,12.7
2017-09-01T10:32:47.174Z,12.9
2017-09-01T10:33:48.821Z,12.9
2017-09-01T10:34:50.468Z,13.0
2017-09-01T10:35:52.113Z,12.5
2017-09-01T10:36:53.759Z,12.0
2017-09-01T10:37:55.406Z,12.4
2017-09-01T10:38:57.048Z,10.6
2017-09-01T10:39:58.693Z,11.6
2017-09-01T10:41:00.340Z,11.6
2017-09-01T10:42:01.995Z,10.7
2017-09-01T10:43:03.647Z,11.9
2017-09-01T10:44:05.289Z,10.8
2017-09-01T10:45:06.932Z,10.2
2017-09-01T10:46:08.574Z,9.5
2017-09-01T10:47:10.220Z,9.6
2017-09-01T10:48:11.863Z,8.1
2017-09-01T10:49:13.508Z,9.5
2017-09-01T10:50:15.152Z,9.4
2017-09-01T10:51:16.796Z,9.1
2017-09-01T10:52:18.443Z,8.8
2017-09-01T10:53:20.091Z,8.6
2017-09-01T10:54:21.736Z,8.0
2017-09-01T10:55:23.388Z,10.3
2017-09-01T10:56:25.035Z,9.0
2017-09-01T10:57:26.681Z,8.5
2017-09-01T10:58:28.325Z,8.7
2017-09-01T10:59:29.973Z,8.0
2017-09-01T11:00:31.646Z,7.3
2017-09-01T11:01:33.299Z,8.4
2017-09-01T11:02:34.955Z,7.8
2017-09-01T11:03:36.603Z,7.0
2017-09-01T11:04:38.253Z,6.8
2017-09-01T11:05:39.904Z,7.8
2017-09-01T11:06:41.550Z,7.0
2017-09-01T11:07:43.200Z,7.9
2017-09-01T11:08:44.849Z,7.9
2017-09-01T11:09:46.500Z,6.9
2017-09-01T11:10:48.154Z,7.6
2017-09-01T11:11:49.804Z,8.4
2017-09-01T11:12:51.456Z,7.3
2017-09-01T11:13:53.109Z,9.4
2017-09-01T11:14:54.758Z,7.1
2017-09-01T11:15:56.411Z,6.5
2017-09-01T11:16:58.060Z,6.8
2017-09-01T11:17:59.713Z,5.8
2017-09-01T11:19:01.364Z,4.9
2017-09-01T11:20:03.015Z,4.9
2017-09-01T11:21:04.666Z,5.3
2017-09-01T11:22:06.318Z,6.0
2017-09-01T11:23:07.967Z,6.8
2017-09-01T11:24:09.631Z,5.1
2017-09-01T11:25:11.290Z,4.9
2017-09-01T11:26:12.939Z,5.8
2017-09-01T11:27:14.591Z,5.5
2017-09-01T11:28:16.257Z,5.2
2017-09-01T11:29:17.911Z,6.2
2017-09-01T11:30:19.563Z,5.8
2017-09-01T11:31:21.217Z,5.2
2017-09-01T11:32:22.869Z,6.3
2017-09-01T11:33:24.523Z,6.1
2017-09-01T11:34:26.178Z,5.4
2017-09-01T11:35:27.829Z,5.0
2017-09-01T11:36:29.479Z,5.8
2017-09-01T11:37:31.134Z,4.8
2017-09-01T11:38:32.785Z,5.3
2017-09-01T11:39:34.442Z,5.4
2017-09-01T11:40:36.101Z,5.1
2017-09-01T11:41:37.751Z,5.7
2017-09-01T11:42:39.404Z,6.1
2017-09-01T11:43:41.056Z,5.8
2017-09-01T11:44:42.712Z,7.1
2017-09-01T11:45:44.366Z,7.7
2017-09-01T11:46:46.019Z,5.7
2017-09-01T11:47:47.671Z,5.3
2017-09-01T11:48:49.323Z,5.6
2017-09-01T11:49:50.979Z,4.7
2017-09-01T11:50:52.634Z,5.0
2017-09-01T11:51:54.285Z,4.5
2017-09-01T11:52:55.942Z,4.1
2017-09-01T11:53:57.595Z,3.9
2017-09-01T11:54:59.272Z,4.4
2017-09-01T11:56:01.794Z,4.5
2017-09-01T11:57:03.452Z,3.7
2017-09-01T11:58:05.104Z,4.5
2017-09-01T11:59:06.761Z,4.2
2017-09-01T12:00:08.415Z,5.4
2017-09-01T12:01:10.072Z,3.8
2017-09-01T12:02:11.726Z,4.0
2017-09-01T12:03:13.382Z,4.7
2017-09-01T12:04:15.038Z,4.4
2017-09-01T12:05:16.684Z,4.2
2017-09-01T12:06:18.341Z,5.3
2017-09-01T12:07:19.997Z,3.8
2017-09-01T12:08:21.653Z,3.9
2017-09-01T12:09:23.306Z,4.4
2017-09-01T12:10:24.951Z,3.6
2017-09-01T12:11:26.599Z,3.4
2017-09-01T12:12:28.249Z,6.0
2017-09-01T12:13:29.900Z,4.7
2017-09-01T12:14:31.557Z,4.4
2017-09-01T12:15:33.198Z,3.8
2017-09-01T12:16:34.849Z,4.5
2017-09-01T12:17:36.498Z,5.3
2017-09-01T12:18:38.144Z,4.6
2017-09-01T12:19:39.792Z,4.6
2017-09-01T12:20:41.438Z,4.8
2017-09-01T12:21:43.083Z,6.2
2017-09-01T12:22:44.731Z,4.4
2017-09-01T12:23:46.378Z,7.7
2017-09-01T12:24:48.025Z,4.2
2017-09-01T12:25:49.670Z,5.6
2017-09-01T12:26:51.318Z,5.5
2017-09-01T12:27:52.961Z,5.7
2017-09-01T12:28:54.606Z,3.1
2017-09-01T12:29:56.254Z,4.3
2017-09-01T12:30:57.901Z,2.9
2017-09-01T12:31:59.547Z,4.4
2017-09-01T12:33:01.199Z,4.0
2017-09-01T12:34:02.850Z,2.9
2017-09-01T12:35:04.496Z,3.2
2017-09-01T12:36:06.145Z,3.2
2017-09-01T12:37:07.790Z,2.6
2017-09-01T12:38:09.442Z,3.0
2017-09-01T12:39:11.097Z,3.1
2017-09-01T12:40:12.745Z,3.6
2017-09-01T12:41:14.397Z,2.5
2017-09-01T12:42:16.062Z,4.7
2017-09-01T12:43:17.711Z,7.1
2017-09-01T12:44:19.365Z,6.4
2017-09-01T12:45:21.012Z,5.4
2017-09-01T12:46:22.661Z,5.4
2017-09-01T12:47:24.313Z,6.0
2017-09-01T12:48:25.961Z,5.1
2017-09-01T12:49:27.620Z,5.3
2017-09-01T12:50:29.269Z,5.5
2017-09-01T12:51:30.923Z,5.8
2017-09-01T12:52:32.575Z,5.2
2017-09-01T12:53:34.229Z,4.8
2017-09-01T12:54:35.878Z,4.7
2017-09-01T12:55:37.528Z,4.6
2017-09-01T12:56:39.183Z,4.7
2017-09-01T12:57:40.832Z,4.0
2017-09-01T12:58:42.490Z,4.5
2017-09-01T12:59:44.145Z,4.1
2017-09-01T13:00:45.792Z,4.6
2017-09-01T13:01:47.441Z,4.9
2017-09-01T13:02:49.095Z,4.8
2017-09-01T13:03:50.751Z,6.4
2017-09-01T13:04:52.406Z,4.0
2017-09-01T13:05:54.059Z,5.0
2017-09-01T13:06:55.715Z,4.2
2017-09-01T13:07:57.363Z,3.7
2017-09-01T13:08:59.022Z,3.7
2017-09-01T13:10:00.675Z,3.5
2017-09-01T13:11:02.326Z,4.3
2017-09-01T13:12:03.982Z,4.7
2017-09-01T13:13:05.640Z,3.8
2017-09-01T13:14:07.291Z,3.5
2017-09-01T13:15:08.944Z,3.8
2017-09-01T13:16:10.594Z,4.3
2017-09-01T13:17:12.243Z,3.5
2017-09-01T13:18:13.906Z,3.2
2017-09-01T13:19:15.561Z,3.3
2017-09-01T13:20:17.211Z,3.3
2017-09-01T13:21:18.864Z,3.5
2017-09-01T13:22:20.522Z,5.2
2017-09-01T13:23:22.173Z,4.6
2017-09-01T13:24:23.824Z,2.7
2017-09-01T13:25:25.607Z,2.3
2017-09-01T13:26:27.344Z,2.3
2017-09-01T13:27:28.992Z,3.6
2017-09-01T13:28:30.645Z,3.2
2017-09-01T13:29:32.290Z,3.3
2017-09-01T13:30:33.970Z,3.2
2017-09-01T13:31:35.617Z,2.5
2017-09-01T13:32:37.266Z,3.2
2017-09-01T13:33:38.912Z,2.7
2017-09-01T13:34:40.557Z,2.9
2017-09-01T13:35:42.205Z,3.9
2017-09-01T13:36:43.846Z,2.1
2017-09-01T13:37:45.493Z,2.4
2017-09-01T13:38:47.139Z,3.6
2017-09-01T13:39:48.799Z,2.5
2017-09-01T13:40:50.443Z,3.2
2017-09-01T13:41:52.095Z,5.0
2017-09-01T13:42:53.748Z,7.6
2017-09-01T13:43:55.387Z,9.9
2017-09-01T13:44:57.047Z,5.7
2017-09-01T13:45:58.711Z,6.2
2017-09-01T13:47:00.353Z,5.9
2017-09-01T13:48:01.991Z,7.4